Time;durP1;ratioP1;P1;durP2;ratioP2;P2;SDS_P1;SDS_P2;PMS_P1;PMS_P2;Temp;Humidity;BMP_temperature;BMP_pressure;BME280_temperature;BME280_humidity;BME280_pressure;Samples;Min_cycle;Max_cycle;Signal;HPM_P1;HPM_P2
2022/01/25 00:08:25;;;;;;;10.80;6.53;;;;;;;;;;5076558;28;20255;-88
2022/01/25 00:25:05;;;;;;;7.67;6.87;;;;;;;;;;5063499;28;20190;-88
2022/01/25 00:27:42;;;;;;;26.23;13.93;;;;;;;;;;5063866;28;20202;-88
2022/01/25 00:30:42;;;;;;;8.47;6.73;;;;;;;;;;5063233;28;20236;-88
2022/01/25 00:33:11;;;;;;;6.37;5.87;;;;;;;;;;5060555;28;20198;-88
2022/01/25 00:35:41;;;;;;;12.03;7.47;;;;;;;;;;5075185;28;20218;-89
2022/01/25 00:38:09;;;;;;;18.60;12.87;;;;;;;;;;5064043;28;20214;-88
2022/01/25 00:40:38;;;;;;;24.60;13.37;;;;;;;;;;5064042;28;20226;-88
2022/01/25 00:43:06;;;;;;;25.87;13.40;;;;;;;;;;5064592;28;20201;-88
2022/01/25 00:45:34;;;;;;;20.53;11.63;;;;;;;;;;5071975;28;20214;-87
2022/01/25 00:48:05;;;;;;;14.90;10.17;;;;;;;;;;5067541;28;20264;-87
2022/01/25 00:50:39;;;;;;;13.07;11.03;;;;;;;;;;5059725;28;20202;-88
2022/01/25 00:55:55;;;;;;;21.57;9.37;;;;;;;;;;5067889;28;20295;-88
2022/01/25 00:58:24;;;;;;;3.10;2.97;;;;;;;;;;5062233;28;20323;-88
2022/01/25 01:00:52;;;;;;;15.37;9.17;;;;;;;;;;5057303;28;20218;-88
2022/01/25 01:03:21;;;;;;;13.70;11.20;;;;;;;;;;5073449;28;20316;-88
2022/01/25 01:05:50;;;;;;;9.30;8.37;;;;;;;;;;5058732;28;20211;-88
2022/01/25 01:08:20;;;;;;;12.63;6.70;;;;;;;;;;5074190;28;20214;-88
2022/01/25 01:10:48;;;;;;;19.47;14.53;;;;;;;;;;5070717;28;20203;-88
2022/01/25 01:13:50;;;;;;;19.53;12.27;;;;;;;;;;5055087;28;20206;-88
2022/01/25 01:30:18;;;;;;;6.63;5.77;;;;;;;;;;5074339;28;20209;-88
2022/01/25 01:33:32;;;;;;;16.63;10.17;;;;;;;;;;5074602;28;20197;-88
2022/01/25 01:41:59;;;;;;;29.07;13.70;;;;;;;;;;5073825;28;20245;-88
2022/01/25 01:44:39;;;;;;;41.20;23.37;;;;;;;;;;5074946;28;20255;-86
2022/01/25 01:47:12;;;;;;;36.87;20.67;;;;;;;;;;5074416;28;20221;-88
2022/01/25 01:49:43;;;;;;;8.20;6.33;;;;;;;;;;5063245;28;20207;-88
2022/01/25 01:52:13;;;;;;;13.20;9.50;;;;;;;;;;5054566;28;20203;-88
2022/01/25 01:54:41;;;;;;;12.93;8.43;;;;;;;;;;5054422;28;20210;-88
2022/01/25 01:57:11;;;;;;;7.73;6.93;;;;;;;;;;5054146;28;20199;-88
2022/01/25 01:59:40;;;;;;;17.60;14.73;;;;;;;;;;5054527;28;20206;-88
2022/01/25 02:02:08;;;;;;;36.70;19.10;;;;;;;;;;5054485;28;20222;-88
2022/01/25 02:04:38;;;;;;;10.00;7.67;;;;;;;;;;5054117;28;20198;-88
2022/01/25 02:07:06;;;;;;;7.30;6.73;;;;;;;;;;5057028;28;20206;-88
2022/01/25 02:09:35;;;;;;;6.10;4.60;;;;;;;;;;5058043;28;20364;-88
2022/01/25 02:12:03;;;;;;;3.63;3.33;;;;;;;;;;5058208;28;20206;-89
2022/01/25 02:14:35;;;;;;;14.30;9.83;;;;;;;;;;5058073;28;20212;-88
2022/01/25 02:17:11;;;;;;;10.40;7.03;;;;;;;;;;5058373;28;20206;-88
2022/01/25 02:22:31;;;;;;;22.07;11.90;;;;;;;;;;5058187;28;20210;-88
2022/01/25 02:25:00;;;;;;;20.77;11.00;;;;;;;;;;5077344;28;20201;-88
2022/01/25 02:27:28;;;;;;;10.40;8.43;;;;;;;;;;5078085;28;20206;-88
2022/01/25 02:29:57;;;;;;;15.10;10.73;;;;;;;;;;5077454;28;20254;-88
2022/01/25 02:32:25;;;;;;;12.40;9.13;;;;;;;;;;5078251;28;20198;-88
2022/01/25 02:34:54;;;;;;;8.83;5.53;;;;;;;;;;5076974;28;20201;-88
2022/01/25 02:37:22;;;;;;;10.23;9.30;;;;;;;;;;5077724;28;20206;-88
2022/01/25 02:39:52;;;;;;;8.20;6.33;;;;;;;;;;5077701;28;20224;-86
2022/01/25 02:42:20;;;;;;;11.23;8.47;;;;;;;;;;5076923;28;20249;-87
2022/01/25 02:44:49;;;;;;;20.27;10.60;;;;;;;;;;5078007;28;20262;-87
2022/01/25 02:50:04;;;;;;;18.20;12.30;;;;;;;;;;5077884;28;20206;-88
2022/01/25 02:52:33;;;;;;;25.30;15.20;;;;;;;;;;5077438;28;20210;-87
2022/01/25 02:55:03;;;;;;;6.90;6.20;;;;;;;;;;5077509;28;20268;-87
2022/01/25 02:57:32;;;;;;;6.17;4.40;;;;;;;;;;5077086;28;20213;-88
2022/01/25 03:00:02;;;;;;;15.20;10.17;;;;;;;;;;5076840;28;20206;-87
2022/01/25 03:02:31;;;;;;;20.83;16.90;;;;;;;;;;5076365;28;20237;-88
2022/01/25 03:04:59;;;;;;;5.10;4.67;;;;;;;;;;5076909;28;20220;-88
2022/01/25 03:07:28;;;;;;;20.40;9.93;;;;;;;;;;5077324;28;20233;-88
2022/01/25 03:09:58;;;;;;;8.87;4.97;;;;;;;;;;5077164;28;20197;-88
2022/01/25 03:12:36;;;;;;;12.53;10.43;;;;;;;;;;5077686;28;20198;-88
2022/01/25 03:15:24;;;;;;;5.07;4.57;;;;;;;;;;5077116;28;20205;-88
2022/01/25 03:17:56;;;;;;;3.23;3.00;;;;;;;;;;5077892;28;20214;-87
2022/01/25 03:20:35;;;;;;;6.63;5.97;;;;;;;;;;5076059;28;20325;-87
2022/01/25 03:23:17;;;;;;;19.27;11.83;;;;;;;;;;5071331;28;20218;-87
2022/01/25 03:25:47;;;;;;;15.60;7.03;;;;;;;;;;5056707;28;20206;-87
2022/01/25 03:28:17;;;;;;;13.23;7.93;;;;;;;;;;5056835;28;20193;-87
2022/01/25 03:30:46;;;;;;;3.23;2.77;;;;;;;;;;5056608;28;20260;-88
2022/01/25 03:33:15;;;;;;;4.73;4.43;;;;;;;;;;5056703;28;20210;-87
2022/01/25 03:35:45;;;;;;;14.17;9.97;;;;;;;;;;5056296;28;20203;-88
2022/01/25 03:38:13;;;;;;;2.80;2.70;;;;;;;;;;5056728;28;20206;-87
2022/01/25 03:40:42;;;;;;;16.17;10.17;;;;;;;;;;5055845;28;20210;-87
2022/01/25 03:43:11;;;;;;;2.97;2.60;;;;;;;;;;5056812;28;20280;-87
2022/01/25 03:45:44;;;;;;;13.30;11.03;;;;;;;;;;5056325;28;20234;-88
2022/01/25 03:50:58;;;;;;;6.20;4.13;;;;;;;;;;5055823;28;20211;-87
2022/01/25 03:53:27;;;;;;;14.23;9.30;;;;;;;;;;5056717;28;20271;-87
2022/01/25 03:55:56;;;;;;;8.37;6.30;;;;;;;;;;5055586;28;20206;-87
2022/01/25 03:58:26;;;;;;;4.90;4.50;;;;;;;;;;5055700;28;20233;-87
2022/01/25 04:00:56;;;;;;;10.63;3.30;;;;;;;;;;5055937;28;20211;-87
2022/01/25 04:03:30;;;;;;;6.27;5.57;;;;;;;;;;5055690;28;20252;-87
2022/01/25 04:05:59;;;;;;;7.60;6.20;;;;;;;;;;5056753;28;20209;-88
2022/01/25 04:08:27;;;;;;;4.47;4.27;;;;;;;;;;5056139;28;20259;-87
2022/01/25 04:10:56;;;;;;;6.03;4.10;;;;;;;;;;5056122;28;20344;-88
2022/01/25 04:13:24;;;;;;;1.97;1.90;;;;;;;;;;5056312;28;20226;-87
2022/01/25 04:15:56;;;;;;;5.43;4.93;;;;;;;;;;5055942;28;20210;-88
2022/01/25 04:18:33;;;;;;;9.77;6.03;;;;;;;;;;5056957;28;20228;-88
2022/01/25 04:21:12;;;;;;;6.43;3.87;;;;;;;;;;5055674;28;20276;-88
2022/01/25 04:26:26;;;;;;;20.20;11.97;;;;;;;;;;5075647;28;20234;-88
2022/01/25 04:28:55;;;;;;;11.93;8.80;;;;;;;;;;5075733;28;20228;-87
2022/01/25 04:31:23;;;;;;;17.60;11.87;;;;;;;;;;5075482;28;20209;-88
2022/01/25 04:34:09;;;;;;;17.97;9.73;;;;;;;;;;5075639;28;20221;-87
2022/01/25 04:48:52;;;;;;;10.10;7.80;;;;;;;;;;5075086;28;20255;-87
2022/01/25 04:51:25;;;;;;;19.00;12.60;;;;;;;;;;5075187;28;20296;-87
2022/01/25 04:53:59;;;;;;;20.03;12.53;;;;;;;;;;5074832;28;20229;-87
2022/01/25 04:56:34;;;;;;;10.80;4.87;;;;;;;;;;5074538;28;20211;-88
2022/01/25 04:59:10;;;;;;;17.67;6.07;;;;;;;;;;5074464;28;20232;-88
2022/01/25 05:01:39;;;;;;;7.77;7.00;;;;;;;;;;5074916;28;20265;-87
2022/01/25 05:04:15;;;;;;;19.57;12.27;;;;;;;;;;5074653;28;20218;-88
2022/01/25 05:06:47;;;;;;;13.67;9.30;;;;;;;;;;5074012;28;20197;-88
2022/01/25 05:09:18;;;;;;;21.50;14.00;;;;;;;;;;5074507;28;20214;-87
2022/01/25 05:11:49;;;;;;;30.90;17.33;;;;;;;;;;5074216;28;20209;-87
2022/01/25 05:14:22;;;;;;;14.23;10.77;;;;;;;;;;5074650;28;20202;-87
2022/01/25 05:16:54;;;;;;;19.87;14.37;;;;;;;;;;5074321;28;20205;-87
2022/01/25 05:22:12;;;;;;;16.50;9.97;;;;;;;;;;5040773;28;20232;-87
2022/01/25 05:24:42;;;;;;;8.10;6.37;;;;;;;;;;5054822;28;20254;-88
2022/01/25 05:27:11;;;;;;;19.73;10.63;;;;;;;;;;5054009;28;20271;-88
2022/01/25 05:29:40;;;;;;;30.97;20.33;;;;;;;;;;5054232;28;20210;-88
2022/01/25 05:32:08;;;;;;;20.13;12.10;;;;;;;;;;5054293;28;20206;-88
2022/01/25 05:34:38;;;;;;;15.40;7.93;;;;;;;;;;5054659;28;20198;-88
2022/01/25 05:37:08;;;;;;;26.23;13.83;;;;;;;;;;5054143;28;20202;-88
2022/01/25 05:39:37;;;;;;;26.40;16.17;;;;;;;;;;5054356;28;20210;-88
2022/01/25 05:45:00;;;;;;;25.97;13.80;;;;;;;;;;5040937;28;20230;-88
2022/01/25 05:47:30;;;;;;;19.97;13.17;;;;;;;;;;5058061;28;20225;-88
2022/01/25 05:49:59;;;;;;;22.73;14.67;;;;;;;;;;5058174;28;20206;-87
2022/01/25 05:52:28;;;;;;;27.70;16.37;;;;;;;;;;5057864;28;20230;-88
2022/01/25 05:54:59;;;;;;;27.13;15.73;;;;;;;;;;5058421;28;20229;-88
2022/01/25 05:57:28;;;;;;;23.43;15.90;;;;;;;;;;5058314;28;20272;-88
2022/01/25 05:59:56;;;;;;;20.07;11.20;;;;;;;;;;5057803;28;20233;-88
2022/01/25 06:02:27;;;;;;;13.30;9.17;;;;;;;;;;5058141;28;20202;-88
2022/01/25 06:04:56;;;;;;;5.83;5.43;;;;;;;;;;5058076;28;20238;-87
2022/01/25 06:07:26;;;;;;;18.47;11.77;;;;;;;;;;5057646;28;20198;-87
2022/01/25 06:09:56;;;;;;;17.63;10.37;;;;;;;;;;5057633;28;20204;-88
2022/01/25 06:12:25;;;;;;;9.93;8.97;;;;;;;;;;5058187;28;20263;-88
2022/01/25 06:14:53;;;;;;;2.13;2.03;;;;;;;;;;5057808;28;20222;-87
2022/01/25 06:17:21;;;;;;;19.50;13.60;;;;;;;;;;5057791;28;20210;-88
2022/01/25 06:19:50;;;;;;;38.87;24.87;;;;;;;;;;5058252;28;20230;-86
2022/01/25 06:22:18;;;;;;;32.33;20.50;;;;;;;;;;5058590;28;20232;-87
2022/01/25 06:24:47;;;;;;;27.33;16.80;;;;;;;;;;5077646;28;20214;-87
2022/01/25 06:27:16;;;;;;;18.57;11.40;;;;;;;;;;5077990;28;20237;-87
2022/01/25 06:29:47;;;;;;;4.47;4.03;;;;;;;;;;5078000;28;20202;-88
2022/01/25 06:32:16;;;;;;;40.57;26.30;;;;;;;;;;5078125;28;20209;-87
2022/01/25 06:34:45;;;;;;;19.73;9.00;;;;;;;;;;5078374;28;20228;-87
2022/01/25 06:37:13;;;;;;;4.80;4.23;;;;;;;;;;5078144;28;20205;-88
2022/01/25 06:39:42;;;;;;;39.83;27.13;;;;;;;;;;5078393;28;20214;-88
2022/01/25 06:42:11;;;;;;;25.70;14.33;;;;;;;;;;5078166;28;20209;-88
2022/01/25 06:44:41;;;;;;;24.70;15.57;;;;;;;;;;5077985;28;20225;-88
2022/01/25 06:47:09;;;;;;;16.87;9.93;;;;;;;;;;5078933;28;20197;-88
2022/01/25 06:49:38;;;;;;;35.50;20.50;;;;;;;;;;5077776;28;20216;-88
2022/01/25 06:52:11;;;;;;;27.20;17.37;;;;;;;;;;5077426;28;20201;-88
2022/01/25 06:54:40;;;;;;;40.37;25.73;;;;;;;;;;5077760;28;20202;-88
2022/01/25 06:57:09;;;;;;;21.53;14.70;;;;;;;;;;5077543;28;20205;-88
2022/01/25 06:59:38;;;;;;;47.07;33.00;;;;;;;;;;5078119;28;20206;-88
2022/01/25 07:02:08;;;;;;;54.30;28.50;;;;;;;;;;5077129;28;20205;-87
2022/01/25 07:04:38;;;;;;;46.57;32.87;;;;;;;;;;5076905;28;20217;-87
2022/01/25 07:07:06;;;;;;;38.80;24.53;;;;;;;;;;5076697;28;20229;-87
2022/01/25 07:09:36;;;;;;;39.00;24.70;;;;;;;;;;5076768;28;20233;-88
2022/01/25 07:12:05;;;;;;;37.47;23.13;;;;;;;;;;5076795;28;20220;-88
2022/01/25 07:14:34;;;;;;;31.13;18.53;;;;;;;;;;5076336;28;20225;-88
2022/01/25 07:17:02;;;;;;;42.37;27.87;;;;;;;;;;5076672;28;20225;-88
2022/01/25 07:19:32;;;;;;;35.20;24.07;;;;;;;;;;5076406;28;20233;-87
2022/01/25 07:22:01;;;;;;;43.10;25.93;;;;;;;;;;5077342;28;20255;-88
2022/01/25 07:24:29;;;;;;;44.83;26.97;;;;;;;;;;5059602;28;20242;-88
2022/01/25 07:26:58;;;;;;;28.57;18.57;;;;;;;;;;5056431;28;20238;-88
2022/01/25 07:29:26;;;;;;;32.37;19.67;;;;;;;;;;5056993;28;20205;-88
2022/01/25 07:31:55;;;;;;;34.07;20.07;;;;;;;;;;5056953;28;20252;-89
2022/01/25 07:34:33;;;;;;;47.30;31.37;;;;;;;;;;5057002;28;20206;-89
2022/01/25 07:37:16;;;;;;;41.73;22.13;;;;;;;;;;5049717;28;20214;-88
2022/01/25 07:39:48;;;;;;;38.67;23.13;;;;;;;;;;5056828;28;20209;-89
2022/01/25 07:42:24;;;;;;;26.87;18.03;;;;;;;;;;5057293;28;20201;-90
2022/01/25 07:45:00;;;;;;;13.10;9.90;;;;;;;;;;5056456;28;20221;-88
2022/01/25 07:47:35;;;;;;;22.20;12.37;;;;;;;;;;5056441;28;20209;-91
2022/01/25 07:50:16;;;;;;;40.13;23.73;;;;;;;;;;5056200;28;20285;-90
2022/01/25 07:52:46;;;;;;;34.47;17.87;;;;;;;;;;5056672;28;20190;-89
2022/01/25 07:55:15;;;;;;;49.40;26.73;;;;;;;;;;5056191;28;20203;-89
2022/01/25 07:57:43;;;;;;;36.70;21.47;;;;;;;;;;5056380;28;20214;-89
2022/01/25 08:00:16;;;;;;;34.07;19.97;;;;;;;;;;5056720;28;20194;-89
2022/01/25 08:02:47;;;;;;;42.70;27.03;;;;;;;;;;5055811;28;20316;-89
2022/01/25 08:05:20;;;;;;;15.77;10.20;;;;;;;;;;5055283;28;20229;-89
2022/01/25 08:07:51;;;;;;;39.07;26.07;;;;;;;;;;5056311;28;20221;-89
2022/01/25 08:10:29;;;;;;;37.30;22.23;;;;;;;;;;5056644;28;20281;-89
2022/01/25 08:13:00;;;;;;;38.77;24.97;;;;;;;;;;5056506;28;20214;-89
2022/01/25 08:15:29;;;;;;;44.93;26.73;;;;;;;;;;5055972;28;20198;-87
2022/01/25 08:18:02;;;;;;;27.27;16.03;;;;;;;;;;5055989;28;20232;-87
2022/01/25 08:20:38;;;;;;;34.20;21.97;;;;;;;;;;5055629;28;20256;-87
2022/01/25 08:23:17;;;;;;;45.27;30.43;;;;;;;;;;5056056;28;20186;-87
2022/01/25 08:25:52;;;;;;;45.73;31.07;;;;;;;;;;5055690;28;20318;-87
2022/01/25 08:28:22;;;;;;;26.13;13.97;;;;;;;;;;5056041;28;20202;-84
2022/01/25 08:30:52;;;;;;;1.27;1.27;;;;;;;;;;5055560;28;20191;-87
2022/01/25 08:33:34;;;;;;;11.60;7.57;;;;;;;;;;5047980;28;20207;-87
2022/01/25 08:36:05;;;;;;;35.33;22.70;;;;;;;;;;5055536;28;20199;-88
2022/01/25 08:38:39;;;;;;;26.80;15.87;;;;;;;;;;5055797;28;20190;-88
2022/01/25 08:41:15;;;;;;;31.90;18.27;;;;;;;;;;5055877;28;20206;-87
2022/01/25 08:43:50;;;;;;;8.50;5.20;;;;;;;;;;5055597;28;20236;-88
2022/01/25 08:46:20;;;;;;;17.53;9.70;;;;;;;;;;5055559;28;20232;-88
2022/01/25 08:48:53;;;;;;;5.33;4.77;;;;;;;;;;5055759;28;20190;-88
2022/01/25 08:51:26;;;;;;;21.47;13.63;;;;;;;;;;5055706;28;20213;-88
2022/01/25 08:54:01;;;;;;;12.63;9.27;;;;;;;;;;5055281;28;20268;-88
2022/01/25 08:56:33;;;;;;;3.93;3.63;;;;;;;;;;5055663;28;20194;-87
2022/01/25 08:59:06;;;;;;;2.03;2.03;;;;;;;;;;5055078;28;20365;-88
2022/01/25 09:01:35;;;;;;;7.03;4.90;;;;;;;;;;5055549;28;20211;-88
2022/01/25 09:04:04;;;;;;;19.20;10.90;;;;;;;;;;5055399;28;20222;-88
2022/01/25 09:06:38;;;;;;;35.77;18.93;;;;;;;;;;5055177;28;20287;-87
2022/01/25 09:09:08;;;;;;;4.07;3.90;;;;;;;;;;5055039;28;20209;-88
2022/01/25 09:11:37;;;;;;;7.70;5.10;;;;;;;;;;5055184;28;20199;-88
2022/01/25 09:14:05;;;;;;;15.93;11.47;;;;;;;;;;5054888;28;20214;-87
2022/01/25 09:16:37;;;;;;;3.57;2.73;;;;;;;;;;5055501;28;20209;-89
2022/01/25 09:19:06;;;;;;;3.33;3.07;;;;;;;;;;5054613;28;20285;-88
2022/01/25 09:21:34;;;;;;;7.00;5.53;;;;;;;;;;5055199;28;20210;-89
2022/01/25 09:24:05;;;;;;;10.37;4.03;;;;;;;;;;5067939;28;20261;-89
2022/01/25 09:26:33;;;;;;;7.47;4.67;;;;;;;;;;5074485;28;20221;-88
2022/01/25 09:29:02;;;;;;;14.13;7.67;;;;;;;;;;5074466;28;20235;-88
2022/01/25 09:31:31;;;;;;;5.50;4.87;;;;;;;;;;5075243;28;20217;-89
2022/01/25 09:33:59;;;;;;;22.07;11.97;;;;;;;;;;5074530;28;20206;-88
2022/01/25 09:36:29;;;;;;;4.33;4.03;;;;;;;;;;5074935;28;20208;-88
2022/01/25 09:38:58;;;;;;;2.93;2.83;;;;;;;;;;5075499;28;20205;-89
2022/01/25 09:41:29;;;;;;;4.23;3.37;;;;;;;;;;5075119;28;20216;-89
2022/01/25 09:43:58;;;;;;;3.90;3.80;;;;;;;;;;5074980;28;20206;-89
2022/01/25 09:46:26;;;;;;;3.90;3.73;;;;;;;;;;5074953;28;20225;-89
2022/01/25 09:48:55;;;;;;;5.97;5.37;;;;;;;;;;5075013;28;20214;-88
2022/01/25 09:51:25;;;;;;;7.27;6.20;;;;;;;;;;5074927;28;20198;-89
2022/01/25 09:53:53;;;;;;;7.23;6.53;;;;;;;;;;5074795;28;20217;-88
2022/01/25 09:56:22;;;;;;;4.23;3.53;;;;;;;;;;5075183;28;20205;-89
2022/01/25 09:58:52;;;;;;;7.47;6.17;;;;;;;;;;5074712;28;20209;-87
2022/01/25 10:01:25;;;;;;;6.10;5.57;;;;;;;;;;5074389;28;20217;-89
2022/01/25 10:03:54;;;;;;;4.77;4.37;;;;;;;;;;5073838;28;20272;-89
2022/01/25 10:06:23;;;;;;;11.33;5.67;;;;;;;;;;5073287;28;20232;-88
2022/01/25 10:08:55;;;;;;;16.37;9.73;;;;;;;;;;5074745;28;20206;-89
2022/01/25 10:11:25;;;;;;;9.67;8.70;;;;;;;;;;5074590;28;20198;-89
2022/01/25 10:13:58;;;;;;;13.23;8.37;;;;;;;;;;5074323;28;20209;-88
2022/01/25 10:16:33;;;;;;;11.60;10.33;;;;;;;;;;5074651;28;20201;-89
2022/01/25 10:19:04;;;;;;;5.20;4.60;;;;;;;;;;5074604;28;20212;-88
2022/01/25 10:21:33;;;;;;;8.50;7.77;;;;;;;;;;5074206;28;20198;-89
2022/01/25 10:24:03;;;;;;;5.57;5.17;;;;;;;;;;5060598;28;20206;-88
2022/01/25 10:26:33;;;;;;;4.63;4.13;;;;;;;;;;5054533;28;20225;-89
2022/01/25 10:29:13;;;;;;;7.70;6.33;;;;;;;;;;5057744;28;20207;-89
2022/01/25 10:31:46;;;;;;;4.53;4.07;;;;;;;;;;5058262;28;20202;-88
2022/01/25 10:34:15;;;;;;;16.20;12.13;;;;;;;;;;5058103;28;20258;-88
2022/01/25 10:36:46;;;;;;;5.20;4.77;;;;;;;;;;5057991;28;20206;-89
2022/01/25 10:39:15;;;;;;;14.43;10.03;;;;;;;;;;5058378;28;20211;-89
2022/01/25 10:41:44;;;;;;;9.53;7.60;;;;;;;;;;5058089;28;20223;-89
2022/01/25 10:44:14;;;;;;;11.67;8.07;;;;;;;;;;5057465;28;20297;-88
2022/01/25 10:46:42;;;;;;;5.67;3.70;;;;;;;;;;5057514;28;20295;-88
2022/01/25 10:49:12;;;;;;;26.37;17.63;;;;;;;;;;5058090;28;20225;-88
2022/01/25 10:51:42;;;;;;;36.27;22.30;;;;;;;;;;5057913;28;20281;-88
2022/01/25 10:54:13;;;;;;;22.63;13.67;;;;;;;;;;5057359;28;20221;-88
2022/01/25 10:56:46;;;;;;;26.13;15.50;;;;;;;;;;5057489;28;20202;-89
2022/01/25 10:59:19;;;;;;;12.70;6.43;;;;;;;;;;5057626;28;20198;-88
2022/01/25 11:01:49;;;;;;;13.07;9.40;;;;;;;;;;5057441;28;20203;-89
2022/01/25 11:04:19;;;;;;;8.83;5.83;;;;;;;;;;5057335;28;20237;-89
2022/01/25 11:06:54;;;;;;;30.30;16.80;;;;;;;;;;5057484;28;20261;-89
2022/01/25 11:09:25;;;;;;;8.33;7.50;;;;;;;;;;5075506;28;20252;-87
2022/01/25 11:11:56;;;;;;;20.07;12.13;;;;;;;;;;5068388;28;20210;-85
2022/01/25 11:17:12;;;;;;;27.37;16.83;;;;;;;;;;5077566;28;20199;-85
2022/01/25 11:19:42;;;;;;;29.70;18.07;;;;;;;;;;5074963;28;20264;-84
2022/01/25 11:22:12;;;;;;;10.33;7.73;;;;;;;;;;5076023;28;20205;-86
2022/01/25 11:24:41;;;;;;;3.67;3.23;;;;;;;;;;5060827;28;20217;-88
2022/01/25 11:27:10;;;;;;;17.90;9.33;;;;;;;;;;5069760;28;20275;-88
2022/01/25 11:29:41;;;;;;;20.63;11.27;;;;;;;;;;5076536;28;20209;-88
2022/01/25 11:32:12;;;;;;;12.77;9.73;;;;;;;;;;5068666;28;20213;-90
2022/01/25 11:34:41;;;;;;;17.47;9.40;;;;;;;;;;5071285;28;20214;-88
2022/01/25 11:37:10;;;;;;;8.93;7.13;;;;;;;;;;5066205;28;20229;-86
2022/01/25 11:39:41;;;;;;;14.83;6.57;;;;;;;;;;5074679;28;20296;-88
2022/01/25 11:42:11;;;;;;;19.10;12.83;;;;;;;;;;5071016;28;20360;-88
2022/01/25 11:44:49;;;;;;;13.77;6.23;;;;;;;;;;5079707;28;20272;-88
2022/01/25 11:47:18;;;;;;;26.40;15.33;;;;;;;;;;5067856;28;20221;-87
2022/01/25 11:49:54;;;;;;;13.53;9.97;;;;;;;;;;5067623;28;20205;-87
2022/01/25 11:52:24;;;;;;;36.10;23.13;;;;;;;;;;5076661;28;20201;-87
2022/01/25 11:54:53;;;;;;;37.83;24.97;;;;;;;;;;5075718;28;20209;-89
2022/01/25 11:57:23;;;;;;;30.00;17.53;;;;;;;;;;5072299;28;20209;-87
2022/01/25 11:59:53;;;;;;;12.47;7.77;;;;;;;;;;5075671;28;20209;-89
2022/01/25 12:02:41;;;;;;;1.80;1.80;;;;;;;;;;5073312;28;20197;-86
2022/01/25 12:05:11;;;;;;;22.70;12.83;;;;;;;;;;5067522;28;20210;-88
2022/01/25 12:07:42;;;;;;;6.03;5.50;;;;;;;;;;5072530;28;20227;-88
2022/01/25 12:10:29;;;;;;;3.90;3.70;;;;;;;;;;5084437;28;20216;-88
2022/01/25 12:13:14;;;;;;;31.83;19.57;;;;;;;;;;5080085;28;20243;-90
2022/01/25 12:15:45;;;;;;;36.97;20.33;;;;;;;;;;5069381;28;20320;-90
2022/01/25 12:18:28;;;;;;;22.37;13.27;;;;;;;;;;5070964;28;20198;-88
2022/01/25 12:20:57;;;;;;;25.63;14.33;;;;;;;;;;5080290;28;20268;-93
2022/01/25 12:23:44;;;;;;;30.87;17.93;;;;;;;;;;5055780;28;20214;-90
2022/01/25 12:26:17;;;;;;;11.23;8.07;;;;;;;;;;5082157;28;20228;-89
2022/01/25 12:28:50;;;;;;;13.63;9.60;;;;;;;;;;5078261;28;20201;-89
2022/01/25 12:31:20;;;;;;;9.17;5.63;;;;;;;;;;5055872;28;20203;-88
2022/01/25 12:33:48;;;;;;;2.00;1.90;;;;;;;;;;5055459;28;20238;-89
2022/01/25 12:36:17;;;;;;;8.63;5.97;;;;;;;;;;5062626;28;20199;-88
2022/01/25 12:38:47;;;;;;;7.23;4.20;;;;;;;;;;5064163;28;20210;-88
2022/01/25 12:41:16;;;;;;;24.13;14.83;;;;;;;;;;5073084;28;20261;-87
2022/01/25 12:43:45;;;;;;;21.27;12.50;;;;;;;;;;5066935;28;20210;-87
2022/01/25 12:46:15;;;;;;;3.83;3.50;;;;;;;;;;5060896;28;20297;-87
2022/01/25 12:48:47;;;;;;;10.57;7.57;;;;;;;;;;5069925;28;20193;-88
2022/01/25 12:51:22;;;;;;;21.20;12.53;;;;;;;;;;5071914;28;20248;-87
2022/01/25 12:53:51;;;;;;;7.93;6.30;;;;;;;;;;5072204;28;20218;-88
2022/01/25 12:56:21;;;;;;;10.70;7.23;;;;;;;;;;5077977;28;20258;-91
2022/01/25 12:58:52;;;;;;;28.00;15.27;;;;;;;;;;5088125;28;20213;-89
2022/01/25 13:01:21;;;;;;;3.80;3.13;;;;;;;;;;5057029;28;20190;-90
2022/01/25 13:03:52;;;;;;;26.77;14.57;;;;;;;;;;5072401;28;20497;-89
2022/01/25 13:06:22;;;;;;;26.00;12.63;;;;;;;;;;5077416;28;20201;-89
2022/01/25 13:08:56;;;;;;;2.47;2.37;;;;;;;;;;5066837;28;20226;-89
2022/01/25 13:11:28;;;;;;;7.30;5.53;;;;;;;;;;5065599;28;20197;-89
2022/01/25 13:14:14;;;;;;;4.33;3.43;;;;;;;;;;5063088;28;20202;-86
2022/01/25 13:16:48;;;;;;;11.37;6.60;;;;;;;;;;5075845;28;20207;-90
2022/01/25 13:19:19;;;;;;;3.50;3.20;;;;;;;;;;5074062;28;20225;-89
2022/01/25 13:21:50;;;;;;;22.53;13.30;;;;;;;;;;5072914;28;20215;-90
2022/01/25 13:24:39;;;;;;;39.00;20.33;;;;;;;;;;5066962;28;20201;-87
2022/01/25 13:27:12;;;;;;;40.53;25.70;;;;;;;;;;5077127;28;20221;-91
2022/01/25 13:32:30;;;;;;;10.30;5.57;;;;;;;;;;5064832;28;20221;-89
2022/01/25 13:35:05;;;;;;;9.33;6.27;;;;;;;;;;5079902;28;20293;-89
2022/01/25 13:37:34;;;;;;;24.13;11.37;;;;;;;;;;5078697;28;20209;-91
2022/01/25 13:40:04;;;;;;;5.00;4.50;;;;;;;;;;5069967;28;20229;-91
2022/01/25 13:42:40;;;;;;;6.07;3.47;;;;;;;;;;5073558;28;20298;-87
2022/01/25 13:48:01;;;;;;;7.87;4.67;;;;;;;;;;5074211;28;20248;-92
2022/01/25 13:50:33;;;;;;;19.87;10.97;;;;;;;;;;5074489;28;20236;-90
2022/01/25 13:53:03;;;;;;;3.87;3.10;;;;;;;;;;5080424;28;20218;-91
2022/01/25 13:55:32;;;;;;;30.43;15.53;;;;;;;;;;5070997;28;20217;-89
2022/01/25 13:58:00;;;;;;;14.40;7.33;;;;;;;;;;5064711;28;20198;-87
2022/01/25 14:00:29;;;;;;;23.97;13.53;;;;;;;;;;5070875;28;20197;-87
2022/01/25 14:02:59;;;;;;;38.53;21.27;;;;;;;;;;5077671;28;20223;-87
2022/01/25 14:05:38;;;;;;;37.03;18.27;;;;;;;;;;5080501;28;20269;-87
2022/01/25 14:08:08;;;;;;;42.40;19.40;;;;;;;;;;5063748;28;20226;-87
2022/01/25 14:10:36;;;;;;;46.97;25.67;;;;;;;;;;5068904;28;20189;-87
2022/01/25 14:24:20;;;;;;;3.00;2.80;;;;;;;;;;5023027;28;20278;-86
2022/01/25 14:26:48;;;;;;;46.30;24.80;;;;;;;;;;5074589;28;20225;-86
2022/01/25 14:29:20;;;;;;;27.00;16.00;;;;;;;;;;5065565;28;20222;-87
2022/01/25 14:31:48;;;;;;;7.70;5.50;;;;;;;;;;5083840;28;20198;-87
2022/01/25 14:34:18;;;;;;;8.83;3.97;;;;;;;;;;5080991;28;20198;-86
2022/01/25 14:36:48;;;;;;;9.03;4.67;;;;;;;;;;5081374;28;20213;-86
2022/01/25 14:39:17;;;;;;;30.23;17.60;;;;;;;;;;5081542;28;20198;-86
2022/01/25 14:41:49;;;;;;;41.63;22.97;;;;;;;;;;5066202;28;20206;-88
2022/01/25 14:44:23;;;;;;;25.80;16.23;;;;;;;;;;5059898;28;20272;-86
2022/01/25 14:46:53;;;;;;;20.73;11.80;;;;;;;;;;5074663;28;20213;-86
2022/01/25 14:49:26;;;;;;;29.10;10.53;;;;;;;;;;5078981;28;20272;-87
2022/01/25 14:51:56;;;;;;;26.30;18.57;;;;;;;;;;5067546;28;20201;-87
2022/01/25 14:54:26;;;;;;;17.50;10.57;;;;;;;;;;5077277;28;20205;-86
2022/01/25 14:56:57;;;;;;;16.00;7.40;;;;;;;;;;5078521;28;20190;-87
2022/01/25 14:59:27;;;;;;;8.17;5.30;;;;;;;;;;5077559;28;20209;-86
2022/01/25 15:02:00;;;;;;;2.50;2.40;;;;;;;;;;5078114;28;20236;-87
2022/01/25 15:04:36;;;;;;;4.57;4.27;;;;;;;;;;5078092;28;20229;-87
2022/01/25 15:07:05;;;;;;;20.40;10.33;;;;;;;;;;5078668;28;20235;-88
2022/01/25 15:09:34;;;;;;;34.33;17.87;;;;;;;;;;5077366;28;20221;-88
2022/01/25 15:12:04;;;;;;;49.03;26.13;;;;;;;;;;5079981;28;20205;-88
2022/01/25 15:14:49;;;;;;;32.33;19.10;;;;;;;;;;5080381;28;20206;-87
2022/01/25 15:17:17;;;;;;;43.47;25.70;;;;;;;;;;5081863;28;20201;-88
2022/01/25 15:19:46;;;;;;;21.83;13.87;;;;;;;;;;5080536;28;20226;-88
2022/01/25 15:22:18;;;;;;;25.87;11.33;;;;;;;;;;5081553;28;20212;-88
2022/01/25 15:24:48;;;;;;;35.27;16.63;;;;;;;;;;5082056;28;20221;-88
2022/01/25 15:27:23;;;;;;;43.50;29.27;;;;;;;;;;5081634;28;20251;-88
2022/01/25 15:29:52;;;;;;;46.37;27.53;;;;;;;;;;5082240;28;20226;-88
2022/01/25 15:32:20;;;;;;;53.03;20.13;;;;;;;;;;5082277;28;20213;-88
2022/01/25 15:34:49;;;;;;;41.73;22.90;;;;;;;;;;5081663;28;20248;-87
2022/01/25 15:37:18;;;;;;;11.67;6.30;;;;;;;;;;5081531;28;20214;-87
2022/01/25 15:39:47;;;;;;;29.67;17.93;;;;;;;;;;5081530;28;20198;-87
2022/01/25 15:42:18;;;;;;;44.43;19.77;;;;;;;;;;5082127;28;20210;-87
2022/01/25 15:44:54;;;;;;;36.37;20.00;;;;;;;;;;5082204;28;20201;-89
2022/01/25 15:47:26;;;;;;;52.37;26.60;;;;;;;;;;5082081;28;20192;-89
2022/01/25 15:49:56;;;;;;;25.23;13.47;;;;;;;;;;5081424;28;20252;-89
2022/01/25 15:52:24;;;;;;;7.57;6.80;;;;;;;;;;5080912;28;20212;-88
2022/01/25 15:54:53;;;;;;;35.73;21.70;;;;;;;;;;5081902;28;20213;-88
2022/01/25 15:57:22;;;;;;;24.27;14.77;;;;;;;;;;5081436;28;20215;-89
2022/01/25 15:59:52;;;;;;;48.30;26.23;;;;;;;;;;5081930;28;20197;-88
2022/01/25 16:02:23;;;;;;;36.10;20.20;;;;;;;;;;5080851;28;20202;-89
2022/01/25 16:04:53;;;;;;;38.47;22.10;;;;;;;;;;5079218;28;20209;-89
2022/01/25 16:07:25;;;;;;;44.87;23.90;;;;;;;;;;5079445;28;20198;-88
2022/01/25 16:09:56;;;;;;;16.20;8.83;;;;;;;;;;5078175;28;20271;-88
2022/01/25 16:12:25;;;;;;;48.10;25.53;;;;;;;;;;5079344;28;20271;-88
2022/01/25 16:14:56;;;;;;;53.23;29.10;;;;;;;;;;5078786;28;20212;-87
2022/01/25 16:17:24;;;;;;;47.63;28.53;;;;;;;;;;5078368;28;20194;-89
2022/01/25 16:19:53;;;;;;;45.00;21.17;;;;;;;;;;5078342;28;20242;-88
2022/01/25 16:22:21;;;;;;;28.80;17.97;;;;;;;;;;5078648;28;20202;-88